Time;durP1;ratioP1;P1;durP2;ratioP2;P2;SDS_P1;SDS_P2;PMS_P1;PMS_P2;Temp;Humidity;BMP_temperature;BMP_pressure;BME280_temperature;BME280_humidity;BME280_pressure;Samples;Min_cycle;Max_cycle;Signal;HPM_P1;HPM_P2
2023/01/09 00:01:56;;;;;;;36.80;18.40;;;5.40;99.90;;;;;;4422737;28;656889;-74
2023/01/09 00:04:45;;;;;;;39.97;19.57;;;5.40;99.90;;;;;;4441271;28;657756;-74
2023/01/09 00:07:32;;;;;;;44.77;19.70;;;5.30;99.90;;;;;;4418064;28;657406;-74
2023/01/09 00:10:19;;;;;;;41.57;19.33;;;5.30;99.90;;;;;;4438107;28;656391;-74
2023/01/09 00:13:06;;;;;;;40.43;19.63;;;5.30;99.90;;;;;;4423533;28;657128;-74
2023/01/09 00:15:54;;;;;;;41.63;18.87;;;5.30;99.90;;;;;;4439116;28;657185;-74
2023/01/09 00:18:41;;;;;;;44.73;20.10;;;5.30;99.90;;;;;;4413216;28;656498;-74
2023/01/09 00:21:30;;;;;;;48.00;21.77;;;5.20;99.90;;;;;;4444881;28;656783;-74
2023/01/09 00:24:17;;;;;;;48.23;21.20;;;5.20;99.90;;;;;;4417835;28;657236;-74
2023/01/09 00:27:04;;;;;;;46.57;19.93;;;5.00;99.90;;;;;;4447449;28;656134;-75
2023/01/09 00:29:51;;;;;;;47.37;21.07;;;5.00;99.90;;;;;;4423313;28;656744;-74
2023/01/09 00:32:39;;;;;;;54.73;22.67;;;4.80;99.90;;;;;;4442408;28;657366;-75
2023/01/09 00:35:27;;;;;;;49.83;21.57;;;4.80;99.90;;;;;;4421448;28;657234;-74
2023/01/09 00:38:16;;;;;;;51.60;22.00;;;4.60;99.90;;;;;;4441690;28;656227;-74
2023/01/09 00:41:03;;;;;;;50.70;21.03;;;4.50;99.90;;;;;;4411392;28;656195;-74
2023/01/09 00:43:53;;;;;;;50.73;22.40;;;4.50;99.90;;;;;;4420614;28;656971;-74
2023/01/09 00:46:42;;;;;;;49.85;21.35;;;4.40;99.90;;;;;;4422124;28;656829;-74
2023/01/09 00:49:29;;;;;;;51.37;21.43;;;4.30;99.90;;;;;;4447804;28;656830;-74
2023/01/09 00:52:16;;;;;;;45.78;21.08;;;4.20;99.90;;;;;;4416108;28;657487;-74
2023/01/09 00:55:06;;;;;;;53.13;22.03;;;4.10;99.90;;;;;;4436795;28;656975;-74
2023/01/09 00:57:53;;;;;;;51.35;22.35;;;4.00;99.90;;;;;;4423899;28;657253;-75
2023/01/09 01:00:41;;;;;;;48.87;22.83;;;3.90;99.90;;;;;;4422450;28;656626;-74
2023/01/09 01:03:28;;;;;;;54.33;24.30;;;3.90;99.90;;;;;;4449456;28;656055;-74
2023/01/09 01:09:20;;;;;;;49.23;21.60;;;3.70;99.90;;;;;;4404071;28;656771;-74
2023/01/09 01:12:09;;;;;;;46.10;21.37;;;3.60;99.90;;;;;;4436909;28;656932;-74
2023/01/09 01:14:56;;;;;;;49.20;21.90;;;3.60;99.90;;;;;;4423279;28;656450;-74
2023/01/09 01:17:43;;;;;;;49.43;21.53;;;3.50;99.90;;;;;;4443332;28;656676;-74
2023/01/09 01:20:30;;;;;;;45.83;20.87;;;3.40;99.90;;;;;;4422195;28;656460;-74
2023/01/09 01:23:18;;;;;;;43.67;21.03;;;3.40;99.90;;;;;;4442847;28;657435;-74
2023/01/09 01:26:06;;;;;;;49.10;23.83;;;3.20;99.90;;;;;;4428471;28;656358;-74
2023/01/09 01:28:54;;;;;;;45.97;19.33;;;3.20;99.90;;;;;;4441094;28;656587;-74
2023/01/09 01:31:42;;;;;;;50.93;22.30;;;3.20;99.90;;;;;;4419061;28;658383;-75
2023/01/09 01:34:29;;;;;;;48.17;22.83;;;3.10;99.90;;;;;;4453278;28;656426;-74
2023/01/09 01:37:16;;;;;;;47.00;22.70;;;3.10;99.90;;;;;;4423486;28;657062;-74
2023/01/09 01:40:04;;;;;;;43.37;21.57;;;3.00;99.90;;;;;;4442677;28;657170;-74
2023/01/09 01:42:52;;;;;;;42.77;20.00;;;3.00;99.90;;;;;;4420856;28;656730;-74
2023/01/09 01:45:41;;;;;;;39.00;18.50;;;2.90;99.90;;;;;;4445249;28;657323;-75
2023/01/09 01:48:29;;;;;;;37.40;18.23;;;2.80;99.90;;;;;;4419599;28;656463;-74
2023/01/09 01:51:17;;;;;;;36.87;17.93;;;2.80;99.90;;;;;;4422653;28;656694;-74
2023/01/09 01:54:06;;;;;;;44.40;19.60;;;2.80;99.90;;;;;;4444690;28;656595;-74
2023/01/09 01:56:55;;;;;;;38.20;18.80;;;2.80;99.90;;;;;;4418256;28;656800;-75
2023/01/09 01:59:48;;;;;;;40.13;18.60;;;2.80;99.90;;;;;;4413115;28;656784;-75
2023/01/09 02:02:37;;;;;;;43.83;20.13;;;2.80;99.90;;;;;;4392836;28;656694;-74
2023/01/09 02:05:24;;;;;;;42.53;20.67;;;2.80;99.90;;;;;;4440163;28;656668;-75
2023/01/09 02:08:12;;;;;;;39.10;19.60;;;2.80;99.90;;;;;;4424482;28;658175;-75
2023/01/09 02:10:59;;;;;;;39.10;18.80;;;2.70;99.90;;;;;;4440624;28;656710;-75
2023/01/09 02:13:46;;;;;;;39.77;19.10;;;2.60;99.90;;;;;;4423661;28;656149;-74
2023/01/09 02:16:39;;;;;;;36.37;17.10;;;2.60;99.90;;;;;;4440281;28;656384;-75
2023/01/09 02:19:57;;;;;;;36.60;17.30;;;2.60;99.90;;;;;;4391212;28;657265;-75
2023/01/09 02:22:59;;;;;;;38.72;18.92;;;2.50;99.90;;;;;;4391486;28;657100;-75
2023/01/09 02:26:04;;;;;;;38.13;18.67;;;2.50;99.90;;;;;;4416555;28;657072;-75
2023/01/09 02:29:18;;;;;;;40.70;18.83;;;2.50;99.90;;;;;;4396978;28;657207;-74
2023/01/09 02:32:09;;;;;;;42.33;19.23;;;2.40;99.90;;;;;;4402397;28;656595;-75
2023/01/09 02:35:00;;;;;;;41.07;19.70;;;2.40;99.90;;;;;;4424376;28;656146;-74
2023/01/09 02:37:51;;;;;;;42.77;19.37;;;2.20;99.90;;;;;;4419437;28;657088;-75
2023/01/09 02:40:41;;;;;;;36.80;17.73;;;2.30;99.90;;;;;;4424347;28;657255;-75
2023/01/09 02:43:28;;;;;;;39.57;19.13;;;2.20;99.90;;;;;;4414437;28;656703;-75
2023/01/09 02:46:19;;;;;;;38.43;18.67;;;2.20;99.90;;;;;;4427505;28;656460;-75
2023/01/09 02:49:08;;;;;;;37.67;18.37;;;2.20;99.90;;;;;;4430932;28;656229;-74
2023/01/09 02:52:00;;;;;;;43.47;18.63;;;2.10;99.90;;;;;;4440278;28;656729;-75
2023/01/09 02:54:51;;;;;;;36.83;18.17;;;2.10;99.90;;;;;;4423064;28;657573;-75
2023/01/09 02:57:46;;;;;;;38.17;18.00;;;2.10;99.90;;;;;;4427015;28;656866;-75
2023/01/09 03:00:35;;;;;;;39.33;17.17;;;2.10;99.90;;;;;;4420040;28;656559;-75
2023/01/09 03:03:26;;;;;;;39.47;17.97;;;2.10;99.90;;;;;;4419885;28;656708;-75
2023/01/09 03:06:18;;;;;;;42.10;19.97;;;2.00;99.90;;;;;;4419119;28;656886;-75
2023/01/09 03:09:07;;;;;;;43.83;20.47;;;1.90;99.90;;;;;;4403544;28;656304;-75
2023/01/09 03:11:57;;;;;;;44.10;20.33;;;1.90;99.90;;;;;;4451091;28;657710;-75
2023/01/09 03:14:45;;;;;;;44.90;21.13;;;1.80;99.90;;;;;;4422535;28;656921;-75
2023/01/09 03:17:36;;;;;;;42.60;20.47;;;1.80;99.90;;;;;;4422436;28;657037;-75
2023/01/09 03:20:26;;;;;;;43.43;21.23;;;1.80;99.90;;;;;;4420122;28;656737;-75
2023/01/09 03:23:15;;;;;;;51.23;24.37;;;1.70;99.90;;;;;;4424685;28;656521;-74
2023/01/09 03:26:02;;;;;;;50.67;22.60;;;1.70;99.90;;;;;;4424647;28;657112;-75
2023/01/09 03:28:49;;;;;;;49.30;23.80;;;1.70;99.90;;;;;;4448800;28;656268;-75
2023/01/09 03:31:36;;;;;;;51.40;23.67;;;1.60;99.90;;;;;;4422339;28;656849;-75
2023/01/09 03:34:24;;;;;;;53.53;25.63;;;1.60;99.90;;;;;;4441304;28;656621;-75
2023/01/09 03:37:11;;;;;;;62.77;27.03;;;1.50;99.90;;;;;;4425222;28;656485;-75
2023/01/09 03:40:00;;;;;;;47.57;21.30;;;1.50;99.90;;;;;;4449271;28;657401;-75
2023/01/09 03:42:47;;;;;;;52.57;24.33;;;1.50;99.90;;;;;;4424254;28;657353;-75
2023/01/09 03:45:34;;;;;;;46.80;22.67;;;1.50;99.90;;;;;;4444274;28;656623;-75
2023/01/09 03:48:21;;;;;;;47.17;22.37;;;1.40;99.90;;;;;;4425488;28;657274;-75
2023/01/09 03:51:08;;;;;;;49.43;22.20;;;1.40;99.90;;;;;;4443542;28;656860;-74
2023/01/09 03:53:56;;;;;;;59.13;27.30;;;1.40;99.90;;;;;;4423794;28;656750;-75
2023/01/09 03:56:44;;;;;;;50.60;24.30;;;1.40;99.90;;;;;;4444703;28;656908;-75
2023/01/09 03:59:32;;;;;;;48.47;22.57;;;1.50;99.90;;;;;;4424772;28;657227;-75
2023/01/09 04:02:19;;;;;;;39.13;20.23;;;1.50;99.90;;;;;;4452468;28;656148;-75
2023/01/09 04:05:07;;;;;;;43.30;20.07;;;1.50;99.90;;;;;;4422025;28;656547;-76
2023/01/09 04:07:55;;;;;;;45.67;21.17;;;1.50;99.90;;;;;;4443696;28;656954;-75
2023/01/09 04:10:44;;;;;;;43.53;19.40;;;1.60;99.90;;;;;;4443754;28;657208;-75
2023/01/09 04:13:33;;;;;;;48.07;21.23;;;1.70;99.90;;;;;;4423311;28;659056;-75
2023/01/09 04:16:20;;;;;;;52.65;24.25;;;1.70;99.90;;;;;;4424572;28;656957;-75
2023/01/09 04:19:07;;;;;;;52.70;25.40;;;1.70;99.90;;;;;;4442771;28;657325;-74
2023/01/09 04:21:55;;;;;;;56.13;26.40;;;1.70;99.90;;;;;;4441692;28;656617;-75
2023/01/09 04:24:42;;;;;;;57.13;26.63;;;1.90;99.90;;;;;;4443052;28;657526;-75
2023/01/09 04:27:30;;;;;;;59.47;26.43;;;1.90;99.90;;;;;;4446425;28;655927;-75
2023/01/09 04:30:18;;;;;;;59.00;27.07;;;2.00;99.90;;;;;;4420522;28;657487;-75
2023/01/09 04:33:06;;;;;;;55.80;24.87;;;2.00;99.90;;;;;;4423838;28;657019;-75
2023/01/09 04:35:53;;;;;;;54.67;26.93;;;2.10;99.90;;;;;;4445536;28;657720;-75
2023/01/09 04:38:40;;;;;;;56.63;26.93;;;2.20;99.90;;;;;;4420807;28;656436;-73
2023/01/09 04:44:32;;;;;;;49.97;23.43;;;2.30;99.90;;;;;;4418815;28;657434;-74
2023/01/09 04:47:22;;;;;;;45.60;21.40;;;2.50;99.90;;;;;;4436714;28;656943;-75
2023/01/09 04:50:10;;;;;;;49.23;21.97;;;2.60;99.90;;;;;;4419380;28;656356;-74
2023/01/09 04:52:58;;;;;;;45.43;22.83;;;2.60;99.90;;;;;;4422331;28;656837;-74
2023/01/09 04:55:46;;;;;;;49.27;23.17;;;2.60;99.90;;;;;;4436842;28;656865;-74
2023/01/09 04:58:33;;;;;;;48.17;22.40;;;2.70;99.90;;;;;;4445586;28;656754;-74
2023/01/09 05:01:20;;;;;;;46.45;21.73;;;2.70;99.90;;;;;;4422836;28;656991;-74
2023/01/09 05:04:10;;;;;;;42.87;21.47;;;2.70;99.90;;;;;;4442357;28;657302;-74
2023/01/09 05:06:57;;;;;;;44.60;20.83;;;2.80;99.90;;;;;;4429728;28;656916;-74
2023/01/09 05:09:44;;;;;;;43.97;19.27;;;2.80;99.90;;;;;;4444430;28;656212;-74
2023/01/09 05:12:33;;;;;;;34.30;17.77;;;2.80;99.90;;;;;;4423621;28;656693;-74
2023/01/09 05:15:20;;;;;;;38.03;19.10;;;2.90;99.90;;;;;;4418265;28;657489;-74
2023/01/09 05:18:07;;;;;;;36.80;17.07;;;3.00;99.90;;;;;;4448651;28;656745;-74
2023/01/09 05:20:57;;;;;;;37.93;17.37;;;3.00;99.90;;;;;;4439117;28;656911;-74
2023/01/09 05:23:44;;;;;;;33.70;17.43;;;3.10;99.90;;;;;;4444493;28;656236;-75
2023/01/09 05:26:31;;;;;;;33.73;16.63;;;3.30;99.90;;;;;;4420033;28;656390;-74
2023/01/09 05:29:18;;;;;;;38.97;18.80;;;3.40;99.90;;;;;;4436738;28;656945;-74
2023/01/09 05:32:06;;;;;;;45.80;18.83;;;3.50;99.90;;;;;;4425413;28;656898;-74
2023/01/09 05:34:53;;;;;;;194.97;48.23;;;3.60;99.90;;;;;;4445317;28;657214;-74
2023/01/09 05:37:42;;;;;;;267.88;55.70;;;3.80;99.90;;;;;;4429467;28;657359;-74
2023/01/09 05:40:29;;;;;;;138.17;36.83;;;3.80;99.90;;;;;;4443485;28;658646;-74
2023/01/09 05:43:16;;;;;;;116.17;39.67;;;3.90;99.90;;;;;;4422798;28;657925;-74
2023/01/09 05:46:03;;;;;;;62.10;27.17;;;4.00;99.90;;;;;;4444261;28;659006;-74
2023/01/09 05:48:51;;;;;;;35.63;18.07;;;4.10;99.90;;;;;;4419468;28;657350;-74
2023/01/09 05:51:38;;;;;;;33.43;17.00;;;4.20;99.90;;;;;;4443972;28;657140;-74
2023/01/09 05:54:27;;;;;;;34.13;16.67;;;4.20;99.90;;;;;;4428057;28;656310;-74
2023/01/09 05:57:14;;;;;;;35.40;16.80;;;4.30;99.90;;;;;;4437743;28;656559;-74
2023/01/09 06:00:01;;;;;;;34.53;15.83;;;4.40;99.90;;;;;;4428709;28;657228;-74
2023/01/09 06:02:48;;;;;;;33.83;16.07;;;4.30;99.90;;;;;;4441419;28;657678;-74
2023/01/09 06:05:36;;;;;;;32.23;15.63;;;4.40;99.90;;;;;;4422774;28;656574;-74
2023/01/09 06:08:23;;;;;;;34.53;17.63;;;4.40;99.90;;;;;;4446345;28;656853;-74
2023/01/09 06:11:12;;;;;;;35.93;16.97;;;4.40;99.90;;;;;;4422311;28;656655;-74
2023/01/09 06:13:59;;;;;;;34.63;16.97;;;4.50;99.90;;;;;;4446208;28;656366;-75
2023/01/09 06:16:46;;;;;;;31.93;15.37;;;4.60;99.90;;;;;;4423612;28;657506;-74
2023/01/09 06:19:33;;;;;;;33.03;16.37;;;4.60;99.90;;;;;;4447405;28;656642;-75
2023/01/09 06:22:21;;;;;;;32.17;15.13;;;4.60;99.90;;;;;;4427498;28;656546;-74
2023/01/09 06:25:09;;;;;;;30.67;15.40;;;4.70;99.90;;;;;;4447079;28;656670;-75
2023/01/09 06:27:58;;;;;;;29.45;14.82;;;4.70;99.90;;;;;;4435002;28;656930;-75
2023/01/09 06:30:45;;;;;;;29.47;14.83;;;4.70;99.90;;;;;;4430667;28;656495;-74
2023/01/09 06:33:32;;;;;;;32.00;15.63;;;4.70;99.90;;;;;;4445799;28;656674;-77
2023/01/09 06:36:20;;;;;;;33.70;16.33;;;4.70;99.90;;;;;;4438792;28;657042;-74
2023/01/09 06:39:07;;;;;;;33.97;15.57;;;4.70;99.90;;;;;;4445226;28;657260;-75
2023/01/09 06:41:55;;;;;;;31.93;15.83;;;4.80;99.90;;;;;;4447083;28;656265;-75
2023/01/09 06:44:44;;;;;;;35.10;17.70;;;4.80;99.90;;;;;;4454264;28;656913;-75
2023/01/09 06:47:32;;;;;;;46.57;21.13;;;4.90;99.90;;;;;;4426278;28;657040;-75
2023/01/09 06:50:20;;;;;;;38.13;18.07;;;4.90;99.90;;;;;;4437388;28;656657;-75
2023/01/09 06:53:07;;;;;;;36.67;17.23;;;4.90;99.90;;;;;;4425387;28;657112;-75
2023/01/09 06:55:54;;;;;;;33.73;16.00;;;4.90;99.90;;;;;;4448718;28;656440;-75
2023/01/09 06:58:41;;;;;;;45.53;18.05;;;5.00;99.90;;;;;;4426686;28;656727;-75
2023/01/09 07:01:30;;;;;;;37.17;18.57;;;5.10;99.90;;;;;;4446948;28;656992;-75
2023/01/09 07:04:17;;;;;;;32.00;16.30;;;5.10;99.90;;;;;;4421419;28;657946;-75
2023/01/09 07:07:05;;;;;;;29.03;14.33;;;5.10;99.90;;;;;;4449068;28;657232;-75
2023/01/09 07:09:52;;;;;;;29.67;15.67;;;5.20;99.90;;;;;;4421977;28;656809;-75
2023/01/09 07:12:39;;;;;;;25.70;14.47;;;5.30;99.90;;;;;;4436009;28;656484;-74
2023/01/09 07:15:26;;;;;;;33.25;14.25;;;5.40;99.90;;;;;;4420028;28;656709;-75
2023/01/09 07:18:15;;;;;;;30.57;16.10;;;5.40;99.90;;;;;;4438572;28;657651;-75
2023/01/09 07:21:02;;;;;;;40.33;22.13;;;5.30;99.90;;;;;;4418189;28;656849;-75
2023/01/09 07:23:49;;;;;;;46.53;23.40;;;5.30;99.90;;;;;;4444818;28;656965;-74
2023/01/09 07:26:37;;;;;;;51.60;26.27;;;5.30;99.90;;;;;;4426883;28;657198;-75
2023/01/09 07:29:24;;;;;;;62.53;30.30;;;5.40;99.90;;;;;;4444811;28;656514;-75
2023/01/09 07:32:11;;;;;;;49.80;24.87;;;5.40;99.90;;;;;;4421122;28;657970;-75
2023/01/09 07:35:00;;;;;;;91.67;46.83;;;5.50;99.90;;;;;;4450182;28;656447;-75
2023/01/09 07:37:47;;;;;;;69.70;37.43;;;5.50;99.90;;;;;;4416351;28;657584;-75
2023/01/09 07:40:34;;;;;;;56.67;30.30;;;5.60;99.90;;;;;;4446948;28;656021;-74
2023/01/09 07:43:22;;;;;;;51.87;28.97;;;5.70;99.90;;;;;;4421127;28;656339;-75
2023/01/09 07:46:09;;;;;;;51.00;27.23;;;5.80;99.90;;;;;;4448934;28;656255;-75
2023/01/09 07:48:56;;;;;;;50.20;26.07;;;5.90;99.90;;;;;;4425275;28;656649;-75
2023/01/09 07:51:47;;;;;;;33.53;16.27;;;5.90;99.90;;;;;;4446302;28;657194;-75
2023/01/09 07:54:34;;;;;;;49.07;23.57;;;6.00;99.90;;;;;;4426059;28;656259;-75
2023/01/09 07:57:21;;;;;;;48.37;23.47;;;6.00;99.90;;;;;;4422391;28;656196;-75
2023/01/09 08:00:10;;;;;;;37.73;19.53;;;6.10;99.90;;;;;;4437209;28;657536;-75
2023/01/09 08:02:57;;;;;;;32.80;17.00;;;6.20;99.90;;;;;;4422995;28;657715;-75
2023/01/09 08:05:45;;;;;;;37.77;19.33;;;6.20;99.90;;;;;;4444247;28;656468;-75
2023/01/09 08:08:34;;;;;;;36.17;20.00;;;6.20;99.90;;;;;;4426939;28;656965;-75
2023/01/09 08:11:21;;;;;;;36.77;20.53;;;6.20;99.90;;;;;;4417966;28;656527;-74
2023/01/09 08:14:08;;;;;;;26.93;14.33;;;6.30;99.90;;;;;;4442735;28;657397;-75
2023/01/09 08:16:55;;;;;;;26.43;14.77;;;6.40;99.90;;;;;;4417458;28;656229;-74
2023/01/09 08:19:43;;;;;;;22.57;11.90;;;6.50;99.90;;;;;;4439338;28;656999;-75
2023/01/09 08:22:30;;;;;;;26.67;13.50;;;6.50;99.90;;;;;;4424198;28;657266;-74
2023/01/09 08:25:19;;;;;;;26.17;13.70;;;6.60;99.90;;;;;;4440001;28;657314;-75
2023/01/09 08:28:08;;;;;;;26.67;14.47;;;6.70;99.90;;;;;;4423883;28;657416;-76
2023/01/09 08:30:55;;;;;;;28.07;14.50;;;6.80;99.90;;;;;;4434832;28;656274;-74
2023/01/09 08:33:43;;;;;;;26.23;13.80;;;6.90;99.90;;;;;;4447221;28;657975;-75
2023/01/09 08:36:30;;;;;;;22.33;11.05;;;6.90;99.90;;;;;;4421782;28;657004;-75
2023/01/09 08:39:17;;;;;;;25.30;13.47;;;7.10;99.90;;;;;;4435284;28;657120;-75
2023/01/09 08:48:28;;;;;;;27.40;13.30;;;7.40;99.90;;;;;;4333759;28;657283;-75
2023/01/09 08:51:15;;;;;;;25.20;13.47;;;7.40;99.90;;;;;;4418693;28;656584;-74
2023/01/09 08:54:02;;;;;;;22.90;12.67;;;7.50;99.90;;;;;;4440497;28;657587;-75
2023/01/09 08:56:50;;;;;;;27.47;11.57;;;7.50;99.90;;;;;;4435660;28;656333;-75
2023/01/09 08:59:39;;;;;;;22.60;11.63;;;7.50;99.90;;;;;;4442304;28;658350;-75
2023/01/09 09:02:26;;;;;;;22.30;10.70;;;7.60;99.90;;;;;;4419180;28;656077;-75
2023/01/09 09:05:13;;;;;;;18.57;10.47;;;7.70;99.90;;;;;;4439850;28;656669;-75
2023/01/09 09:08:01;;;;;;;19.67;10.43;;;7.80;99.90;;;;;;4427212;28;657188;-75
2023/01/09 09:10:48;;;;;;;23.60;11.57;;;7.80;99.90;;;;;;4437854;28;657900;-75
2023/01/09 09:13:35;;;;;;;25.03;12.43;;;7.80;99.90;;;;;;4420231;28;656769;-74
2023/01/09 09:16:24;;;;;;;22.00;11.60;;;7.80;99.90;;;;;;4439975;28;657123;-75
2023/01/09 09:19:12;;;;;;;20.10;10.67;;;7.80;99.90;;;;;;4420065;28;656630;-74
2023/01/09 09:21:59;;;;;;;22.93;11.67;;;7.70;99.90;;;;;;4438441;28;658457;-76
2023/01/09 09:24:46;;;;;;;25.67;12.73;;;7.70;99.90;;;;;;4419201;28;656956;-75
2023/01/09 09:27:35;;;;;;;44.93;18.10;;;7.70;99.90;;;;;;4440781;28;657442;-74
2023/01/09 09:30:22;;;;;;;25.30;12.57;;;7.70;99.90;;;;;;4415283;28;657388;-74
2023/01/09 09:33:11;;;;;;;22.97;13.10;;;7.70;99.90;;;;;;4443607;28;656872;-75
2023/01/09 09:35:58;;;;;;;27.67;14.27;;;7.80;99.90;;;;;;4417336;28;657141;-75
2023/01/09 09:38:46;;;;;;;38.90;21.13;;;7.80;99.90;;;;;;4423261;28;656533;-74
2023/01/09 09:45:14;;;;;;;30.40;16.83;;;7.80;99.90;;;;;;4410873;28;656757;-74
2023/01/09 09:48:06;;;;;;;33.83;17.30;;;7.80;99.90;;;;;;4395733;28;657972;-75
2023/01/09 09:51:12;;;;;;;27.17;14.20;;;7.80;99.90;;;;;;4420090;28;657312;-75
2023/01/09 09:54:01;;;;;;;23.77;11.90;;;7.80;99.90;;;;;;4442995;28;656120;-75
2023/01/09 09:56:50;;;;;;;21.53;11.77;;;7.80;99.90;;;;;;4432983;28;656896;-75
2023/01/09 09:59:38;;;;;;;24.87;13.03;;;7.90;99.90;;;;;;4419955;28;656548;-74
2023/01/09 10:02:27;;;;;;;28.77;13.70;;;7.90;99.90;;;;;;4424423;28;656610;-74
2023/01/09 10:05:21;;;;;;;28.73;14.33;;;8.00;99.90;;;;;;4445954;28;656192;-76
2023/01/09 10:08:17;;;;;;;31.20;14.13;;;8.00;99.90;;;;;;4419302;28;657094;-75
2023/01/09 10:11:05;;;;;;;29.17;13.47;;;8.00;99.90;;;;;;4420071;28;656345;-74
2023/01/09 10:14:04;;;;;;;30.90;14.00;;;8.00;99.90;;;;;;4417875;28;657224;-75
2023/01/09 10:16:59;;;;;;;26.67;13.93;;;8.00;99.90;;;;;;4426996;28;656272;-75
2023/01/09 10:20:24;;;;;;;34.13;16.57;;;7.90;99.90;;;;;;4403342;28;656978;-74
2023/01/09 10:23:27;;;;;;;30.97;14.40;;;7.90;99.90;;;;;;4325446;28;656995;-74
2023/01/09 10:26:19;;;;;;;29.93;14.10;;;7.80;99.90;;;;;;4349462;28;656892;-75
2023/01/09 10:29:13;;;;;;;27.07;13.07;;;7.90;99.90;;;;;;4403907;28;656662;-75
2023/01/09 10:32:11;;;;;;;29.83;14.30;;;7.90;99.90;;;;;;4399492;28;657469;-74
2023/01/09 10:35:06;;;;;;;33.30;14.93;;;7.90;99.90;;;;;;4416489;28;656789;-75
2023/01/09 10:37:54;;;;;;;34.73;16.10;;;7.90;99.90;;;;;;4417673;28;656536;-76
2023/01/09 10:40:44;;;;;;;32.30;14.60;;;7.90;99.90;;;;;;4416129;28;657073;-75
2023/01/09 10:43:34;;;;;;;29.07;13.47;;;7.90;99.90;;;;;;4418315;28;656373;-75
2023/01/09 10:46:23;;;;;;;27.47;12.37;;;7.90;99.90;;;;;;4420456;28;656907;-75
2023/01/09 10:49:12;;;;;;;28.77;13.77;;;8.00;99.90;;;;;;4418595;28;656223;-74
2023/01/09 10:52:05;;;;;;;29.13;12.60;;;8.10;99.90;;;;;;4442764;28;656818;-74
2023/01/09 10:54:54;;;;;;;25.20;11.77;;;8.10;99.90;;;;;;4400285;28;657190;-74
2023/01/09 10:57:44;;;;;;;18.63;9.57;;;8.10;99.90;;;;;;4421220;28;656997;-75
2023/01/09 11:00:31;;;;;;;21.60;10.87;;;8.10;99.90;;;;;;4426465;28;655536;-75
2023/01/09 11:03:20;;;;;;;19.80;9.93;;;8.10;99.90;;;;;;4441271;28;657021;-75
2023/01/09 11:06:16;;;;;;;19.17;10.20;;;8.10;99.90;;;;;;4422715;28;656633;-75
2023/01/09 11:09:04;;;;;;;19.43;9.60;;;8.10;99.90;;;;;;4418616;28;657078;-75
2023/01/09 11:11:51;;;;;;;22.53;11.53;;;8.20;99.90;;;;;;4418906;28;655544;-74
2023/01/09 11:14:40;;;;;;;27.53;11.13;;;8.20;99.90;;;;;;4443875;28;656341;-74
2023/01/09 11:17:27;;;;;;;17.33;8.73;;;8.20;99.90;;;;;;4421954;28;657451;-75
2023/01/09 11:20:17;;;;;;;13.50;7.40;;;8.20;99.90;;;;;;4446592;28;655384;-75
2023/01/09 11:23:04;;;;;;;15.67;7.50;;;8.30;99.90;;;;;;4428050;28;657817;-75
2023/01/09 11:25:52;;;;;;;15.40;7.77;;;8.30;99.90;;;;;;4423660;28;655582;-74
2023/01/09 11:28:39;;;;;;;17.37;8.27;;;8.40;99.90;;;;;;4445475;28;655174;-74
2023/01/09 11:31:28;;;;;;;13.73;7.77;;;8.40;99.90;;;;;;4422745;28;655367;-75
2023/01/09 11:34:16;;;;;;;15.57;7.67;;;8.40;99.90;;;;;;4428118;28;655792;-75
2023/01/09 11:37:06;;;;;;;17.50;9.20;;;8.40;99.90;;;;;;4443493;28;655973;-75
2023/01/09 11:39:53;;;;;;;13.67;7.53;;;8.40;99.90;;;;;;4422164;28;655813;-75
2023/01/09 11:42:52;;;;;;;14.67;7.00;;;8.30;99.90;;;;;;4424127;28;655967;-75
2023/01/09 11:45:43;;;;;;;14.70;6.80;;;8.20;99.90;;;;;;4422763;28;655536;-75
2023/01/09 11:48:37;;;;;;;14.17;4.60;;;8.10;99.90;;;;;;4400118;28;656166;-75
2023/01/09 11:51:25;;;;;;;11.20;5.43;;;8.30;99.90;;;;;;4419859;28;655366;-75
2023/01/09 11:54:22;;;;;;;11.43;6.10;;;8.30;99.90;;;;;;4421572;28;656254;-76
2023/01/09 11:57:10;;;;;;;11.90;4.90;;;8.30;99.90;;;;;;4420462;28;655858;-76
2023/01/09 11:59:59;;;;;;;12.03;5.23;;;8.30;99.90;;;;;;4425833;28;656338;-75
2023/01/09 12:02:54;;;;;;;7.80;4.57;;;8.30;1.00;;;;;;4421954;28;655255;-75
2023/01/09 12:05:46;;;;;;;9.87;4.20;;;8.40;99.90;;;;;;4400193;28;653393;-75
2023/01/09 12:08:38;;;;;;;7.83;4.20;;;8.50;99.90;;;;;;4422493;28;654489;-75
2023/01/09 12:11:29;;;;;;;6.03;3.40;;;8.50;1.00;;;;;;4413397;28;654547;-75
2023/01/09 12:14:37;;;;;;;7.93;4.47;;;8.40;99.90;;;;;;4420810;28;653202;-75
2023/01/09 12:17:55;;;;;;;55.50;21.07;;;8.40;99.90;;;;;;4425175;28;654276;-75
2023/01/09 12:20:55;;;;;;;125.03;29.47;;;8.40;1.00;;;;;;4393039;28;656782;-75
2023/01/09 12:23:53;;;;;;;87.13;25.13;;;8.40;99.90;;;;;;4396195;28;656942;-75
2023/01/09 12:26:42;;;;;;;85.33;25.97;;;8.40;99.90;;;;;;4406085;28;657216;-75
2023/01/09 12:29:37;;;;;;;97.37;31.07;;;8.30;1.00;;;;;;4443788;28;657182;-75
2023/01/09 12:32:32;;;;;;;25.03;11.60;;;8.30;99.90;;;;;;4409446;28;655456;-76
2023/01/09 12:35:25;;;;;;;27.80;12.40;;;8.30;99.90;;;;;;4418062;28;657174;-74
2023/01/09 12:38:25;;;;;;;20.70;10.93;;;8.30;99.90;;;;;;4419233;28;656875;-75
2023/01/09 12:41:36;;;;;;;18.70;10.77;;;8.30;99.90;;;;;;4394893;28;656779;-76
2023/01/09 12:44:45;;;;;;;19.03;9.53;;;8.30;99.90;;;;;;4419341;28;656982;-76
2023/01/09 12:47:44;;;;;;;18.37;9.37;;;8.20;99.90;;;;;;4396278;28;656189;-75
2023/01/09 12:50:50;;;;;;;20.27;9.83;;;8.20;99.90;;;;;;4398480;28;655835;-76
2023/01/09 12:53:40;;;;;;;20.87;9.90;;;8.20;99.90;;;;;;4418477;28;655851;-76
2023/01/09 12:56:31;;;;;;;19.40;10.63;;;8.10;99.90;;;;;;4419632;28;656155;-76
2023/01/09 12:59:29;;;;;;;20.33;9.23;;;8.10;99.90;;;;;;4417801;28;656870;-76
2023/01/09 13:02:20;;;;;;;20.37;9.30;;;8.00;99.90;;;;;;4396964;28;655656;-76
2023/01/09 13:05:09;;;;;;;21.27;10.60;;;8.00;99.90;;;;;;4421626;28;656086;-76
2023/01/09 13:07:58;;;;;;;23.23;11.20;;;8.00;99.90;;;;;;4417098;28;656293;-76
2023/01/09 13:10:48;;;;;;;31.70;16.50;;;8.00;99.90;;;;;;4415926;28;657368;-76
2023/01/09 13:13:38;;;;;;;29.50;15.47;;;8.00;99.90;;;;;;4424176;28;656631;-74
2023/01/09 13:16:28;;;;;;;31.10;17.23;;;8.00;99.90;;;;;;4420793;28;657003;-76
2023/01/09 13:19:17;;;;;;;40.73;20.93;;;7.90;99.90;;;;;;4412336;28;656246;-74
2023/01/09 13:22:04;;;;;;;58.87;28.63;;;7.90;99.90;;;;;;4423338;28;655926;-75
2023/01/09 13:25:24;;;;;;;232.70;107.55;;;7.90;99.90;;;;;;4403713;28;657144;-76
2023/01/09 13:28:18;;;;;;;58.97;28.70;;;7.80;99.90;;;;;;4391747;28;658351;-75
2023/01/09 13:31:23;;;;;;;52.33;26.13;;;7.80;99.90;;;;;;4384153;28;656780;-75
2023/01/09 13:34:13;;;;;;;23.17;11.00;;;7.80;99.90;;;;;;4400412;28;656663;-76
2023/01/09 13:37:00;;;;;;;43.10;21.83;;;7.70;99.90;;;;;;4410297;28;656485;-75
2023/01/09 13:39:55;;;;;;;60.83;27.83;;;7.70;99.90;;;;;;4427301;28;656137;-77
2023/01/09 13:42:45;;;;;;;40.40;18.73;;;7.70;99.90;;;;;;4380218;28;657679;-76
2023/01/09 13:45:35;;;;;;;37.50;18.20;;;7.60;99.90;;;;;;4401398;28;657286;-75
2023/01/09 13:48:29;;;;;;;48.67;22.53;;;7.60;99.90;;;;;;4394403;28;657312;-76
2023/01/09 13:51:56;;;;;;;42.40;21.17;;;7.60;99.90;;;;;;4372832;28;657239;-76
2023/01/09 13:55:27;;;;;;;36.83;18.50;;;7.60;99.90;;;;;;4399987;28;657397;-76
2023/01/09 13:58:24;;;;;;;23.47;11.53;;;7.60;99.90;;;;;;4326704;28;656025;-76
2023/01/09 14:01:41;;;;;;;32.87;15.97;;;7.60;99.90;;;;;;4308153;28;657764;-74
2023/01/09 14:04:44;;;;;;;29.17;14.30;;;7.70;99.90;;;;;;4397252;28;656893;-75
2023/01/09 14:07:31;;;;;;;29.33;12.87;;;7.70;99.90;;;;;;4380697;28;657453;-74
2023/01/09 14:10:23;;;;;;;24.67;11.73;;;7.70;99.90;;;;;;4421579;28;657015;-75
2023/01/09 14:13:14;;;;;;;28.47;14.60;;;7.70;99.90;;;;;;4385413;28;656794;-74
2023/01/09 14:16:05;;;;;;;97.97;38.97;;;7.70;99.90;;;;;;4399246;28;657239;-74
2023/01/09 14:19:03;;;;;;;103.93;36.67;;;7.70;99.90;;;;;;4417794;28;656896;-75
2023/01/09 14:21:52;;;;;;;85.83;32.37;;;7.70;99.90;;;;;;4395907;28;658179;-74
2023/01/09 14:24:41;;;;;;;102.50;36.07;;;7.70;99.90;;;;;;4446383;28;656034;-75
2023/01/09 14:28:05;;;;;;;120.17;40.47;;;7.70;99.90;;;;;;4421764;28;657822;-76
2023/01/09 14:31:08;;;;;;;228.20;62.00;;;7.70;99.90;;;;;;4395630;28;657689;-74
2023/01/09 14:34:25;;;;;;;88.40;32.23;;;7.70;99.90;;;;;;4395089;28;657762;-74
2023/01/09 14:37:12;;;;;;;25.87;14.47;;;7.70;99.90;;;;;;4391931;28;659097;-74
2023/01/09 14:39:59;;;;;;;26.00;12.50;;;7.70;99.90;;;;;;4446765;28;656652;-74
2023/01/09 14:42:47;;;;;;;23.00;12.03;;;7.70;99.90;;;;;;4429941;28;656342;-73